Tikaboo Peak, Nevada Weather observations

Data are for 10 minute period ending at time listed.
 Day   Time   Solar   Ave.   Ave.  Ave.  Vector  Max.   Baro.   Total    
  of    of     Rad.   Air    Rel.  Wind   Wind   Wind  Press.  Precip.   
Year   Day            Temp.  Hum.  Speed  Dir.   Gust                    
2015   (PST)  Kw/m2    F      %     mph   deg.    mph    mb.     in.     
-------------------------------------------------------------------------
 116   16:40   0.25   39.7    34   22.2   358    37.3   758.8    0.00 
 116   16:50   0.23   39.6    36   14.6   345    33.2   758.8    0.00 
 116   17:00   0.21   39.3    36   14.6   350    33.6   759.0    0.00 
 116   17:10   0.17   39.2    37   16.1   352    30.5   759.2    0.00 
 116   17:20   0.14   39.2    38   10.6   335    25.2   759.1    0.00 
 116   17:30   0.11   38.9    38   14.8   343    31.8   759.0    0.00 
 116   17:40   0.08   38.7    38   16.7   348    31.9   759.2    0.00 
 116   17:50   0.05   38.3    39   15.6   345    31.8   759.1    0.00 
 116   18:00   0.04   38.0    39   19.3   351    33.0   759.3    0.00 
 116   18:10   0.02   37.8    39   22.4   356    39.2   759.3    0.00 
 116   18:20   0.01   37.4    39   21.8   356    35.4   759.3    0.00 
 116   18:30   0.01   37.1    40   28.8     6    41.7   759.1    0.00 
 116   18:40   0.00   36.7    41   25.4   357    38.4   759.4    0.00 
 116   18:50   0.00   36.5    41   22.6   356    35.4   759.4    0.00 
 116   19:00   0.00   36.3    41   28.8   360    41.1   759.6    0.00 
 116   19:10   0.00   36.0    41   23.3     2    38.8   759.7    0.00 
 116   19:20   0.00   35.8    41   23.0     0    36.8   759.9    0.00 
 116   19:30   0.00   35.8    41   24.8     6    36.5   759.9    0.00 
 116   19:40   0.00   35.7    41   24.8     4    34.6   760.1    0.00 
 116   19:50   0.00   35.6    41   25.1     5    35.8   760.2    0.00 
 116   20:00   0.00   35.4    42   23.9     3    31.9   760.4    0.00 
 116   20:10   0.00   35.2    42   24.5     4    34.8   760.4    0.00 
 116   20:20   0.00   35.1    42   26.0     8    34.0   760.4    0.00 
 116   20:30   0.00   34.9    41   27.9     6    37.4   760.4    0.00 
 116   20:40   0.00   34.8    41   26.7     7    38.9   760.5    0.00 
 116   20:50   0.00   34.7    41   26.9     4    34.6   760.5    0.00 
 116   21:00   0.00   34.6    41   28.0     7    40.8   760.6    0.00 
 116   21:10   0.00   34.5    41   27.2     0    38.7   760.5    0.00 
 116   21:20   0.00   34.3    41   28.0     5    41.1   760.5    0.00 
 116   21:30   0.00   34.2    41   30.7     7    45.6   760.5    0.00 
 116   21:40   0.00   34.0    41   28.8     8    43.5   760.5    0.00 
 116   21:50   0.00   33.7    42   29.4    14    44.1   760.6    0.00 
 116   22:00   0.00   33.6    42   30.1    13    44.1   760.6    0.00 
 116   22:10   0.00   33.4    43   30.7    14    48.2   760.4    0.00 
 116   22:20   0.00   33.2    43   29.1    15    46.5   760.4    0.00 
 116   22:30   0.00   33.1    44   28.6    22    43.2   760.7    0.00 
 116   22:40   0.00   32.8    44   30.4    24    47.1   760.9    0.00 
 116   22:50   0.00   32.5    46   31.0    24    49.0   760.6    0.00 
 116   23:00   0.00   32.2    47   34.1    21    52.7   760.6    0.00 
 116   23:10   0.00   31.9    48   33.5    26    50.6   760.6    0.00 
 116   23:20   0.00   31.6    50   31.6    25    46.2   760.6    0.00 
 116   23:30   0.00   31.5    50   35.6    26    52.0   760.4    0.00 
 116   23:40   0.00   31.4    50   32.8    21    49.0   760.3    0.00 
 116   23:50   0.00   31.3    50   32.0    23    51.8   760.6    0.00 
 117    0:00   0.00   31.2    50   29.7    22    52.2   760.8    0.00 
 117    0:10   0.00   31.2    50   29.9    22    51.4   760.8    0.00 
 117    0:20   0.00   31.0    50   32.1    24    47.3   760.7    0.00 
 117    0:30   0.00   30.9    50   33.9    18    51.1   760.6    0.00 
 117    0:40   0.00   30.7    51   30.6    30    45.7   761.0    0.00 
 117    0:50   0.00   30.5    52   30.7    28    47.1   760.8    0.00 
 117    1:00   0.00   30.5    52   32.5    28    46.5   760.6    0.00 
 117    1:10   0.00   30.4    52   33.4    32    51.2   760.6    0.00 
 117    1:20   0.00   30.3    52   29.5    28    47.8   760.6    0.00 
 117    1:30   0.00   30.1    53   29.9    27    49.2   760.6    0.00 
 117    1:40   0.00   30.2    53   31.0    30    47.9   760.7    0.00 
 117    1:50   0.00   30.1    53   30.5    32    49.7   760.7    0.00 
 117    2:00   0.00   30.0    54   27.8    36    44.4   761.1    0.00 
 117    2:10   0.00   29.8    54   29.9    37    44.6   761.0    0.00 
 117    2:20   0.00   29.5    56   31.1    35    42.3   760.7    0.00 
 117    2:30   0.00   29.2    57   31.4    36    48.4   760.5    0.00 
 117    2:40   0.00   29.1    57   33.3    47    46.2   760.7    0.00 
 117    2:50   0.00   29.0    58   31.4    52    44.0   760.7    0.00 
 117    3:00   0.00   28.9    58   25.0    62    41.4   761.2    0.00 
 117    3:10   0.00   28.8    58   26.3    58    37.7   761.1    0.00 
 117    3:20   0.00   29.0    58   31.1    51    46.1   760.8    0.00 
 117    3:30   0.00   29.1    57   30.5    50    45.2   760.8    0.00 
 117    3:40   0.00   29.1    57   26.7    58    42.6   761.1    0.00 
 117    3:50   0.00   29.2    57   31.5    52    54.6   761.1    0.00 
 117    4:00   0.00   29.5    56   34.0    41    46.7   760.8    0.00 
 117    4:10   0.00   29.4    56   31.0    49    46.3   760.8    0.00 
 117    4:20   0.00   29.5    55   26.1    52    44.3   761.0    0.00 
 117    4:30   0.00   29.1    57   20.5    72    41.4   761.3    0.00 
 117    4:40   0.00   29.3    56   23.0    70    38.0   761.4    0.00 
 117    4:50   0.00   29.4    56   23.1    68    44.1   761.6    0.00 
 117    5:00   0.02   29.6    55   26.3    53    42.7   761.7    0.00 
 117    5:10   0.06   30.1    54   25.8    51    46.7   761.7    0.00 
 117    5:20   0.06   30.0    54   27.5    52    44.6   761.7    0.00 
 117    5:30   0.13   30.2    54   31.1    48    45.2   761.6    0.00 
 117    5:40   0.17   30.5    54   28.9    49    39.8   761.7    0.00 
 117    5:50   0.21   30.9    53   28.6    54    39.2   761.9    0.00 
 117    6:00   0.24   31.1    53   29.9    51    42.5   761.9    0.00 
 117    6:10   0.30   31.2    52   32.9    44    45.2   761.8    0.00 
 117    6:20   0.33   31.4    52   35.9    47    47.2   761.6    0.00 
 117    6:30   0.37   31.9    51   35.3    50    44.7   761.8    0.00 
 117    6:40   0.42   32.2    50   34.2    54    45.1   762.0    0.00 
 117    6:50   0.47   32.6    49   31.4    54    46.7   762.0    0.00 
 117    7:00   0.51   32.9    48   32.1    52    43.9   762.3    0.00 
 117    7:10   0.54   33.2    48   31.7    55    45.0   762.3    0.00 
 117    7:20   0.58   33.3    48   33.2    56    47.0   762.3    0.00 
 117    7:30   0.62   33.5    48   32.2    55    43.6   762.5    0.00 
 117    7:40   0.66   34.1    48   31.7    53    43.7   762.5    0.00 
 117    7:50   0.69   34.5    47   29.0    54    43.8   762.5    0.00 
 117    8:00   0.73   35.3    46   27.4    64    38.7   762.9    0.00 
 117    8:10   0.76   35.7    46   28.4    62    37.3   762.7    0.00 
 117    8:20   0.79   35.4    47   27.7    58    38.4   762.7    0.00 
 117    8:30   0.82   35.7    47   27.8    59    36.8   762.8    0.00 
 117    8:40   0.85   36.0    47   27.1    55    36.2   762.9    0.00 
 117    8:50   0.88   36.4    46   25.2    50    37.6   763.0    0.00 
 117    9:00   0.90   38.3    44   16.8    64    29.4   763.4    0.00 
 117    9:10   0.92   39.4    42   14.2    62    30.2   763.5    0.00 
 117    9:20   0.94   39.7    42   15.5    75    29.7   763.6    0.00 
 117    9:30   0.96   40.2    42   17.1    76    28.6   763.6    0.00 
 117    9:40   0.98   41.1    41   13.6    78    25.7   763.7    0.00 
 117    9:50   0.99   42.2    39   13.4    90    27.6   763.7    0.00 
 117   10:00   1.01   41.8    38   16.6    70    28.0   763.7    0.00 
 117   10:10   1.02   42.4    38   15.3    86    26.2   763.9    0.00 
 117   10:20   1.03   43.2    37   15.1    77    28.0   763.9    0.00 
 117   10:30   1.04   42.9    37   15.1    61    28.0   763.9    0.00 
 117   10:40   1.05   43.7    36   14.9    83    27.0   764.0    0.00 
 117   10:50   1.05   44.2    36   13.5    85    25.9   764.0    0.00 
 117   11:00   1.06   44.9    34   12.0   103    24.1   764.0    0.00 
 117   11:10   1.06   45.6    33   10.7   102    22.9   764.1    0.00 
 117   11:20   1.06   46.1    33   10.8    78    24.5   764.1    0.00 
 117   11:30   1.06   46.6    32   13.0    76    23.8   764.2    0.00 
 117   11:40   1.05   45.9    33   15.0    68    25.9   764.1    0.00 
 117   11:50   1.05   46.0    33   11.8    69    24.0   764.2    0.00 
 117   12:00   1.04   46.7    32   13.8    54    25.1   764.2    0.00 
 117   12:10   1.03   45.7    33   11.6    43    24.5   764.2    0.00 
 117   12:20   1.02   46.8    32   10.2    51    21.4   764.2    0.00 
 117   12:30   1.01   47.5    31    7.7    49    18.6   764.1    0.00 
 117   12:40   0.99   48.1    30   10.5    45    23.1   764.0    0.00 
 117   12:50   0.98   48.8    30    6.5    63    19.3   764.2    0.00 
 117   13:00   0.96   49.6    29    6.6    69    19.2   764.2    0.00 
 117   13:10   0.94   49.7    28   12.5    52    24.5   764.2    0.00 
 117   13:20   0.92   49.4    29    8.2    55    21.3   764.2    0.00 
 117   13:30   0.89   49.7    28    9.1    78    17.6   764.2    0.00 
 117   13:40   0.87   50.0    28    7.8    38    17.5   764.1    0.00 
 117   13:50   0.85   50.6    27    9.0    44    22.6   764.0    0.00 
 117   14:00   0.82   50.6    27    7.4    63    18.0   763.9    0.00 
 117   14:10   0.79   51.4    27    7.2    44    18.8   764.0    0.00 
 117   14:20   0.76   53.1    26    3.2    46    10.3   764.0    0.00 
 117   14:30   0.73   53.3    25    4.9    14    14.3   764.0    0.00 
 117   14:40   0.70   51.8    25    9.2    34    20.5   764.0    0.00 
 117   14:50   0.67   51.3    26    7.5    28    14.5   764.0    0.00 
 117   15:00   0.63   51.8    26    7.5    27    19.1   763.8    0.00 
 117   15:10   0.60   51.2    25    9.6    32    19.5   763.9    0.00 
 117   15:20   0.56   52.2    25    5.6    17    16.2   763.9    0.00 
 117   15:30   0.53   52.2    25    7.0    20    21.8   763.9    0.00 
 117   15:40   0.49   51.2    26    7.5    46    17.5   763.9    0.00 
 117   15:50   0.45   52.0    26    7.9    30    24.3   763.9    0.00 
 117   16:00   0.42   51.8    26    5.5    20    15.1   763.7    0.00 
 117   16:10   0.38   52.7    25    4.3    24    13.6   763.7    0.00 
 117   16:20   0.34   52.3    25    5.0    10    13.9   763.7    0.00 
 117   16:30   0.30   51.3    27    9.7    35    19.7   763.7    0.00 

Return to Tikaboo Peak graphs page.


Western Regional Climate Center,wrcc@dri.edu